Latest Weather Observations for Giles*

IDW60801

Issued at 9:33 am WST Saturday 25 June 2016 (issued every 30 minutes, with the page automatically refreshed every 10 minutes)

About weather observations | Map of weather stations | Latest weather observations for WA | Other Formats
Station Details ID: 013017 Name: GILES METEOROLOGICAL OFFICE Lat: -25.03 Lon: 128.30 Height: 598.0 m
Data from the previous 72 hours. | See also: Recent months at Giles*

* Giles observations are collected in the South Australia time zone, which includes daylight saving in the summer period. Therefore, Rain since 9am value is with respect to South Australia local time.

Date/Time
WST
Temp
°C
App
Temp
°C
Dew
Point
°C
Rel
Hum
%
Delta-T
°C
Wind Press
QNH
hPa
Press
MSL
hPa
Rain since
9am
mm
Dir  Spd
km/h
Gust
km/h
Spd
kts
Gust
kts
25/09:30am 13.6 12.4 12.7 94 0.5 NNE 11 19 6 10 1018.2 1017.2 1.4
25/09:22am 13.7 12.4 12.4 92 0.7 NNE 11 20 6 11 1018.4 1017.5 1.4
25/09:00am 13.5 12.5 12.2 92 0.7 NE 9 17 5 9 1018.4 1017.5 1.4
25/08:30am 13.2 12.1 12.1 93 0.6 NE 9 13 5 7 1018.6 1017.7 1.4
25/08:12am 12.2 11.6 11.8 97 0.2 ENE 6 9 3 5 1018.8 1017.9 1.2
25/08:00am 11.8 10.5 11.4 97 0.2 ENE 9 11 5 6 1018.7 1017.8 1.2
25/07:30am 11.4 10.0 11.0 97 0.2 NE 9 11 5 6 1019.1 1018.1 4.0
25/07:00am 11.3 9.8 10.5 95 0.4 ENE 9 13 5 7 1018.9 1018.0 2.4
25/06:30am 11.4 9.8 10.3 93 0.6 ENE 9 13 5 7 1018.6 1017.7 1.4
25/06:00am 11.6 9.9 9.7 88 1.0 E 9 13 5 7 1018.2 1017.2 0.4
25/05:30am 12.4 9.8 7.9 74 2.3 E 11 13 6 7 1018.0 1017.0 0.2
25/05:00am 12.5 10.1 7.1 69 2.7 SE 9 11 5 6 1017.8 1016.8 0.2
25/04:30am 12.8 10.8 7.2 69 2.8 E 7 11 4 6 1017.5 1016.5 0.2
25/04:00am 12.2 11.7 7.8 74 2.2 CALM 0 4 0 2 1017.6 1016.6 0.2
25/03:30am 12.4 10.5 6.7 68 2.8 SE 6 7 3 4 1017.5 1016.5 0.2
25/03:00am 12.0 10.1 6.7 70 2.6 SE 6 7 3 4 1017.4 1016.4 0.2
25/02:30am 11.8 9.2 6.0 67 2.8 SE 9 11 5 6 1017.6 1016.6 0.2
25/02:00am 12.4 10.9 5.1 61 3.5 E 2 6 1 3 1017.6 1016.6 0.2
25/01:30am 11.4 9.2 5.5 67 2.8 NE 6 7 3 4 1017.6 1016.6 0.2
25/01:00am 11.8 8.9 4.6 61 3.4 ESE 9 13 5 7 1017.9 1016.9 0.2
25/12:30am 11.4 8.1 4.8 64 3.1 SE 11 15 6 8 1018.1 1017.1 0.2
25/12:00am 11.9 8.9 4.2 59 3.6 ESE 9 13 5 7 1018.0 1017.0 0.2
 
Date/Time
WST
Temp
°C
App
Temp
°C
Dew
Point
°C
Rel
Hum
%
Delta-T
°C
Wind Press
QNH
hPa
Press
MSL
hPa
Rain since
9am
mm
Dir  Spd
km/h
Gust
km/h
Spd
kts
Gust
kts
24/11:30pm 11.5 8.1 4.2 61 3.4 ESE 11 13 6 7 1018.7 1017.8 0.2
24/11:00pm 11.5 9.1 4.4 61 3.3 SSE 6 9 3 5 1018.9 1018.0 0.2
24/10:30pm 11.3 8.4 4.7 64 3.1 ESE 9 9 5 5 1019.6 1018.6 0.2
24/10:00pm 11.2 8.2 4.3 62 3.2 E 9 11 5 6 1019.7 1018.7 0.2
24/09:30pm 11.5 8.6 4.9 64 3.1 ESE 9 15 5 8 1019.8 1018.9 0.2
24/09:00pm 11.7 8.2 3.4 56 3.8 E 11 11 6 6 1019.8 1018.9 0.2
24/08:30pm 11.3 7.7 2.8 56 3.8 E 11 13 6 7 1019.8 1018.9 0.2
24/08:00pm 12.3 8.6 2.5 51 4.4 ENE 11 13 6 7 1019.9 1019.0 0.2
24/07:30pm 13.0 9.3 2.1 47 4.9 ENE 11 13 6 7 1019.8 1018.9 0.2
24/07:00pm 13.5 9.3 1.6 44 5.3 ENE 13 17 7 9 1019.6 1018.6 0.2
24/06:30pm 13.7 9.5 1.9 44 5.3 ENE 13 17 7 9 1019.5 1018.5 0.2
24/06:00pm 14.1 10.0 2.2 44 5.4 ENE 13 13 7 7 1019.4 1018.4 0.2
24/05:30pm 14.6 11.3 2.4 43 5.6 ENE 9 11 5 6 1019.2 1018.2 0.2
24/05:00pm 14.9 11.6 2.2 42 5.8 E 9 11 5 6 1018.9 1018.0 0.2
24/04:30pm 16.3 12.5 1.6 37 6.7 E 11 15 6 8 1018.7 1017.8 0.2
24/04:00pm 17.3 13.0 0.7 32 7.5 E 13 19 7 10 1018.5 1017.6 0.2
24/03:30pm 17.8 13.4 0.2 30 7.9 ENE 13 19 7 10 1018.5 1017.6 0.2
24/03:00pm 17.8 12.9 -0.5 29 8.1 ENE 15 24 8 13 1018.3 1017.4 0.2
24/02:30pm 17.8 12.5 -0.5 29 8.1 ENE 17 24 9 13 1018.4 1017.5 0.2
24/02:00pm 17.9 12.9 -1.4 27 8.4 ENE 15 22 8 12 1018.5 1017.6 0.2
24/01:30pm 17.5 11.9 -0.3 30 7.9 E 19 26 10 14 1018.5 1017.6 0.2
24/01:00pm 17.7 13.3 0.4 31 7.8 E 13 20 7 11 1018.7 1017.8 0.2
24/12:30pm 16.7 12.1 1.3 35 7.0 E 15 28 8 15 1019.2 1018.2 0.0
24/12:00pm 16.9 11.8 0.7 33 7.3 ESE 17 24 9 13 1019.5 1018.5 0.0
24/11:30am 15.9 10.5 1.3 37 6.6 ESE 19 28 10 15 1020.2 1019.3 0.0
24/11:00am 15.2 9.6 1.4 39 6.2 E 20 28 11 15 1020.9 1019.9 0.0
24/10:30am 14.5 9.1 2.2 43 5.6 ESE 20 32 11 17 1021.3 1020.4 0.0
24/10:00am 14.1 8.2 1.9 43 5.5 ESE 22 33 12 18 1021.5 1020.6 0.0
24/09:30am 13.4 7.7 2.6 48 4.9 ESE 22 33 12 18 1021.9 1021.0 0.0
24/09:00am 12.6 5.8 3.2 52 4.3 ESE 28 37 15 20 1022.0 1021.1 0.0
24/08:30am 11.6 4.9 3.5 57 3.7 ESE 28 41 15 22 1022.0 1021.1 0.0
24/08:00am 10.3 4.5 4.4 67 2.7 ESE 24 32 13 17 1021.7 1020.8 0.0
24/07:30am 9.1 4.3 4.5 73 2.1 ESE 19 24 10 13 1021.5 1020.6 0.8
24/07:00am 7.1 2.6 4.4 83 1.2 ESE 17 20 9 11 1021.4 1020.5 0.8
24/06:30am 5.6 1.0 3.8 88 0.8 ESE 17 20 9 11 1021.2 1020.2 0.8
24/06:00am 5.1 1.3 3.7 91 0.6 ESE 13 17 7 9 1021.0 1020.0 0.8
24/05:30am 5.6 0.7 4.0 89 0.7 ESE 19 22 10 12 1020.5 1019.6 0.8
24/05:00am 5.8 0.9 4.2 89 0.7 ESE 19 20 10 11 1020.2 1019.3 0.8
24/04:30am 6.2 1.7 4.4 88 0.8 ESE 17 20 9 11 1020.1 1019.2 0.8
24/04:00am 6.6 1.8 4.6 87 0.9 ESE 19 24 10 13 1020.0 1019.1 0.8
24/03:30am 6.5 1.7 4.7 88 0.8 ESE 19 22 10 12 1020.0 1019.1 0.8
24/03:00am 6.5 2.1 4.7 88 0.8 ESE 17 22 9 12 1020.0 1019.1 0.8
24/02:30am 6.4 2.0 4.8 89 0.7 SE 17 22 9 12 1019.8 1018.9 0.8
24/02:00am 6.3 1.6 5.0 91 0.6 ESE 19 24 10 13 1019.7 1018.7 0.8
24/01:30am 6.5 1.8 5.0 90 0.7 ESE 19 22 10 12 1019.9 1019.0 0.8
24/01:00am 6.4 2.1 5.3 93 0.5 SE 17 20 9 11 1020.0 1019.1 0.8
24/12:30am 6.4 2.1 5.3 93 0.5 SE 17 20 9 11 1020.1 1019.2 0.8
24/12:00am 6.6 2.7 5.3 91 0.6 SE 15 20 8 11 1020.4 1019.5 0.8
 
Date/Time
WST
Temp
°C
App
Temp
°C
Dew
Point
°C
Rel
Hum
%
Delta-T
°C
Wind Press
QNH
hPa
Press
MSL
hPa
Rain since
9am
mm
Dir  Spd
km/h
Gust
km/h
Spd
kts
Gust
kts
23/11:30pm 6.5 2.6 5.2 91 0.6 SE 15 17 8 9 1020.6 1019.7 0.8
23/11:00pm 7.0 3.5 5.5 90 0.7 SE 13 15 7 8 1020.7 1019.8 0.8
23/10:30pm 7.7 3.9 5.8 88 0.9 SE 15 19 8 10 1020.7 1019.8 0.8
23/10:00pm 7.9 4.5 5.8 86 1.0 SE 13 17 7 9 1020.7 1019.8 0.8
23/09:30pm 7.9 4.1 6.0 88 0.9 SSE 15 17 8 9 1020.4 1019.5 0.8
23/09:00pm 7.9 4.1 5.8 86 1.0 SSE 15 17 8 9 1020.1 1019.2 0.8
23/08:30pm 8.3 4.6 6.2 87 1.0 SSE 15 17 8 9 1020.0 1019.1 0.8
23/08:00pm 8.5 5.2 6.4 87 1.0 SSE 13 15 7 8 1019.9 1019.0 0.8
23/07:30pm 8.9 6.0 6.6 85 1.1 SSE 11 13 6 7 1019.7 1018.7 0.8
23/07:00pm 9.4 6.6 6.9 84 1.2 SSE 11 13 6 7 1019.4 1018.4 0.8
23/06:30pm 9.9 7.1 7.0 82 1.4 SSE 11 11 6 6 1019.2 1018.2 0.8
23/06:00pm 10.8 8.5 7.4 79 1.7 S 9 13 5 7 1018.7 1017.8 0.8
23/05:30pm 11.7 9.4 7.5 75 2.1 S 9 11 5 6 1018.2 1017.2 0.8
23/05:00pm 12.6 10.3 7.6 71 2.5 SSE 9 11 5 6 1017.8 1016.8 0.8
23/04:30pm 14.3 11.1 6.9 61 3.7 SSE 13 15 7 8 1017.5 1016.5 0.8
23/04:00pm 15.3 12.0 6.3 55 4.5 S 13 17 7 9 1017.3 1016.3 0.8
23/03:30pm 15.7 12.3 6.1 53 4.8 SSE 13 19 7 10 1017.0 1016.1 0.8
23/03:00pm 16.2 12.3 7.2 55 4.6 S 17 22 9 12 1016.9 1016.0 0.8
23/02:30pm 16.2 12.7 7.2 55 4.6 S 15 20 8 11 1016.8 1015.8 0.8
23/02:00pm 15.8 12.3 7.2 56 4.4 S 15 26 8 14 1016.8 1015.8 0.8
23/01:30pm 16.0 12.7 8.1 59 4.1 S 15 22 8 12 1016.9 1016.0 0.8
23/01:00pm 15.5 12.0 8.6 63 3.6 S 17 24 9 13 1017.0 1016.1 0.8
23/12:30pm 14.9 11.4 8.6 66 3.3 S 17 22 9 12 1017.5 1016.5 0.8
23/12:00pm 14.9 11.4 8.8 67 3.2 S 17 20 9 11 1017.8 1016.8 0.8
23/11:30am 14.6 10.9 9.5 71 2.7 S 19 24 10 13 1018.2 1017.2 0.8
23/11:00am 12.8 9.1 10.2 84 1.4 S 20 28 11 15 1018.2 1017.2 0.8
23/10:30am 12.5 9.2 10.8 89 0.9 S 19 28 10 15 1018.7 1017.8 0.8
23/10:00am 12.0 8.6 11.3 95 0.4 S 20 28 11 15 1018.9 1018.0 0.8
23/09:30am 11.7 7.9 11.1 96 0.3 S 22 30 12 16 1019.1 1018.1 0.8
23/09:00am 12.2 9.9 11.7 97 0.3 SSW 15 20 8 11 1019.2 1018.2 0.8
23/08:30am 12.3 10.0 11.9 97 0.2 SSW 15 24 8 13 1018.9 1018.0 0.4
23/08:00am 12.4 9.3 11.5 94 0.5 SSW 19 26 10 14 1018.3 1017.4 0.2
23/07:30am 12.8 10.2 12.1 95 0.4 S 17 24 9 13 1017.7 1016.7 0.0
23/07:00am 13.1 10.6 12.2 94 0.5 SSW 17 26 9 14 1017.3 1016.3 0.0
23/06:30am 13.5 13.7 13.0 97 0.3 SSW 4 9 2 5 1016.8 1015.8 0.0
23/06:00am 13.6 12.8 12.9 95 0.4 SSW 9 13 5 7 1016.6 1015.6 0.0
23/05:30am 13.7 11.5 13.2 97 0.3 SSW 17 20 9 11 1016.1 1015.1 0.0
23/05:00am 14.1 11.0 13.4 96 0.4 SSW 22 32 12 17 1015.9 1014.9 0.0
23/04:30am 14.5 13.6 13.8 96 0.4 SSW 11 17 6 9 1015.4 1014.5 0.0
23/04:00am 15.0 13.2 13.3 89 1.0 SW 15 19 8 10 1015.4 1014.5 0.0
23/03:30am 15.3 13.8 13.0 86 1.3 SW 13 19 7 10 1016.2 1015.2 0.0
23/03:00am 15.4 14.2 12.9 85 1.4 SW 11 15 6 8 1015.9 1014.9 0.0
23/02:30am 15.4 14.5 12.6 83 1.6 SW 9 17 5 9 1015.2 1014.2 0.0
23/02:00am 15.8 12.9 12.4 80 1.9 SW 19 24 10 13 1015.4 1014.5 0.0
23/01:30am 16.0 13.6 12.5 80 2.0 SW 17 28 9 15 1015.9 1014.9 0.0
23/01:00am 16.0 15.8 13.0 82 1.7 WNW 6 9 3 5 1015.3 1014.3 0.0
23/12:30am 16.1 15.6 12.8 81 1.9 NNW 7 11 4 6 1014.6 1013.6 0.0
23/12:00am 16.5 15.4 12.1 75 2.5 NW 9 11 5 6 1015.4 1014.5 0.0
 
Date/Time
WST
Temp
°C
App
Temp
°C
Dew
Point
°C
Rel
Hum
%
Delta-T
°C
Wind Press
QNH
hPa
Press
MSL
hPa
Rain since
9am
mm
Dir  Spd
km/h
Gust
km/h
Spd
kts
Gust
kts
22/11:30pm 15.9 14.6 12.5 80 1.9 NNW 11 13 6 7 1015.3 1014.3 0.0
22/11:00pm 15.6 15.1 12.6 82 1.7 NNW 7 9 4 5 1015.3 1014.3 0.0
22/10:30pm 16.0 15.1 12.7 81 1.9 NW 9 11 5 6 1015.8 1014.8 0.0
22/10:00pm 15.7 14.4 13.6 87 1.2 N 13 15 7 8 1015.9 1014.9 0.0
22/09:30pm 15.9 14.8 13.1 83 1.6 NW 11 13 6 7 1016.3 1015.3 0.0
22/09:00pm 16.6 15.0 12.9 79 2.1 NNW 13 17 7 9 1015.8 1014.8 0.0
22/08:30pm 17.5 16.0 11.8 69 3.2 NW 11 17 6 9 1015.7 1014.7 0.0
22/08:00pm 17.5 16.0 11.8 69 3.2 NNW 11 13 6 7 1015.7 1014.7 0.0
22/07:30pm 17.8 15.8 11.6 67 3.5 NNW 13 17 7 9 1016.1 1015.1 0.0
22/07:00pm 17.3 15.5 12.0 71 3.0 N 13 17 7 9 1015.6 1014.6 0.0
22/06:30pm 17.3 15.9 12.2 72 2.9 N 11 13 6 7 1015.8 1014.8 0.0
22/06:00pm 17.7 16.6 12.1 69 3.2 NNW 9 9 5 5 1016.1 1015.1 0.0
22/05:30pm 18.0 16.5 11.8 67 3.5 NW 11 13 6 7 1016.5 1015.5 0.0
22/05:00pm 18.4 17.2 11.7 65 3.8 NW 9 11 5 6 1016.3 1015.3 0.0
22/04:30pm 18.8 17.1 11.3 61 4.2 NNW 11 15 6 8 1015.9 1014.9 0.0
22/04:00pm 19.1 17.0 11.3 60 4.4 NNW 13 15 7 8 1015.7 1014.7 0.0
22/03:30pm 19.2 17.1 11.2 60 4.5 NNW 13 17 7 9 1015.9 1014.9 0.0
22/03:00pm 19.2 17.2 11.4 60 4.4 NNW 13 17 7 9 1015.8 1014.8 0.0
22/02:30pm 19.3 17.6 11.3 60 4.5 NW 11 17 6 9 1015.7 1014.7 0.0
22/02:00pm 19.4 17.4 11.4 60 4.5 NW 13 17 7 9 1015.1 1014.1 0.0
22/01:30pm 19.1 19.2 11.5 61 4.3 NNE 2 6 1 3 1015.1 1014.1 0.0
22/01:00pm 18.5 17.5 12.2 66 3.6 NE 9 13 5 7 1015.2 1014.2 0.0
22/12:30pm 18.3 18.8 12.7 70 3.2 S 2 7 1 4 1015.6 1014.6 0.0
22/12:00pm 18.2 17.1 11.8 66 3.6 NNW 9 13 5 7 1015.9 1014.9 0.0
22/11:30am 18.1 16.3 12.1 68 3.4 N 13 17 7 9 1016.6 1015.6 0.0
22/11:00am 18.1 15.8 11.9 67 3.5 N 15 20 8 11 1017.1 1016.2 0.0
22/10:30am 17.2 15.8 12.3 73 2.8 NNW 11 15 6 8 1017.6 1016.6 0.0
22/10:00am 17.1 16.5 11.8 71 3.0 E 6 9 3 5 1017.5 1016.5 0.0
22/09:30am 17.0 16.1 11.2 68 3.2 N 7 9 4 5 1017.4 1016.4 0.0
22/09:00am 16.2 15.4 10.9 71 2.9 E 6 7 3 4 1017.6 1016.6 0.0
22/08:30am 15.9 15.0 11.2 73 2.6 ENE 7 9 4 5 1017.6 1016.6 0.0

Other Formats:

Comma delimited format used in spreadsheet applications
http://www.bom.gov.au/fwo/IDW60801/IDW60801.94461.axf

JavaScript Object Notation format (JSON) in row-major order
http://www.bom.gov.au/fwo/IDW60801/IDW60801.94461.json